Time;durP1;ratioP1;P1;durP2;ratioP2;P2;SDS_P1;SDS_P2;PMS_P1;PMS_P2;Temp;Humidity;BMP_temperature;BMP_pressure;BME280_temperature;BME280_humidity;BME280_pressure;Samples;Min_cycle;Max_cycle;Signal;HPM_P1;HPM_P2
2022/05/03 00:02:24;;;;;;;10.27;6.28;;;5.20;86.20;;;;;;5040206;28;20389;-65
2022/05/03 00:05:11;;;;;;;10.05;5.65;;;5.20;88.40;;;;;;5046429;28;20051;-64
2022/05/03 00:07:52;;;;;;;10.20;5.68;;;5.10;87.60;;;;;;5045208;28;20128;-64
2022/05/03 00:10:24;;;;;;;9.20;5.88;;;5.20;88.00;;;;;;5044672;28;20099;-65
2022/05/03 00:13:01;;;;;;;10.25;5.72;;;5.10;88.30;;;;;;5038511;28;20045;-65
2022/05/03 00:15:27;;;;;;;10.95;5.60;;;5.10;86.90;;;;;;5036767;28;20045;-64
2022/05/03 00:17:54;;;;;;;11.70;6.30;;;5.10;85.00;;;;;;5039558;28;20077;-65
2022/05/03 00:20:20;;;;;;;10.32;5.75;;;5.10;84.80;;;;;;5045054;28;20040;-64
2022/05/03 00:22:46;;;;;;;13.02;5.93;;;5.10;86.10;;;;;;5047604;28;20379;-65
2022/05/03 00:25:12;;;;;;;9.60;5.18;;;5.20;88.40;;;;;;5049760;28;20029;-65
2022/05/03 00:27:38;;;;;;;7.68;5.00;;;5.10;86.60;;;;;;5041912;28;20043;-65
2022/05/03 00:30:06;;;;;;;11.93;5.78;;;5.00;86.10;;;;;;5044428;28;20029;-65
2022/05/03 00:32:31;;;;;;;9.82;5.10;;;5.00;86.90;;;;;;5049618;28;20041;-65
2022/05/03 00:34:58;;;;;;;10.70;5.88;;;5.00;85.50;;;;;;5041653;28;20098;-65
2022/05/03 00:37:24;;;;;;;9.30;5.38;;;4.90;87.70;;;;;;5040965;28;20098;-65
2022/05/03 00:39:49;;;;;;;9.38;5.22;;;4.90;87.40;;;;;;5040039;28;20045;-64
2022/05/03 00:42:19;;;;;;;10.32;5.85;;;4.80;87.00;;;;;;5040582;28;20037;-65
2022/05/03 00:45:02;;;;;;;8.57;5.43;;;4.80;87.10;;;;;;5039231;28;20029;-65
2022/05/03 00:47:53;;;;;;;9.10;5.60;;;4.70;87.10;;;;;;5032951;28;20053;-64
2022/05/03 00:50:42;;;;;;;8.90;5.20;;;4.70;87.60;;;;;;5032159;28;20041;-65
2022/05/03 00:53:11;;;;;;;9.23;5.35;;;4.70;86.40;;;;;;5047380;28;20119;-65
2022/05/03 00:56:02;;;;;;;9.40;5.72;;;4.60;85.50;;;;;;5034003;28;20072;-65
2022/05/03 00:58:36;;;;;;;10.75;5.88;;;4.60;89.90;;;;;;5032156;28;20045;-64
2022/05/03 01:01:20;;;;;;;8.77;5.15;;;4.70;87.40;;;;;;5030286;28;20055;-64
2022/05/03 01:04:12;;;;;;;6.47;4.70;;;4.70;86.60;;;;;;5041429;28;20048;-65
2022/05/03 01:07:07;;;;;;;8.88;4.95;;;4.70;87.60;;;;;;5043116;28;20504;-65
2022/05/03 01:09:48;;;;;;;8.77;4.72;;;4.60;87.60;;;;;;5042906;28;20157;-65
2022/05/03 01:12:28;;;;;;;7.90;4.57;;;4.70;86.60;;;;;;5048710;28;20037;-64
2022/05/03 01:15:07;;;;;;;9.52;5.13;;;4.60;86.30;;;;;;5035555;28;20037;-65
2022/05/03 01:18:00;;;;;;;8.93;5.25;;;4.60;88.50;;;;;;5035010;28;20033;-65
2022/05/03 01:20:50;;;;;;;8.43;4.50;;;4.50;87.50;;;;;;5045035;28;20056;-65
2022/05/03 01:23:27;;;;;;;9.02;4.75;;;4.40;87.70;;;;;;5044417;28;20037;-65
2022/05/03 01:26:26;;;;;;;12.02;5.63;;;4.40;86.30;;;;;;5039128;28;20513;-65
2022/05/03 01:29:13;;;;;;;9.27;5.15;;;4.40;88.10;;;;;;5033528;28;20128;-65
2022/05/03 01:31:40;;;;;;;7.70;4.55;;;4.40;87.60;;;;;;5035570;28;20037;-65
2022/05/03 01:34:10;;;;;;;8.82;5.00;;;4.40;87.70;;;;;;5040135;28;20140;-65
2022/05/03 01:36:57;;;;;;;9.63;5.22;;;4.40;88.50;;;;;;5032500;28;20064;-65
2022/05/03 01:39:58;;;;;;;13.18;5.85;;;4.30;90.00;;;;;;5037548;28;20107;-65
2022/05/03 01:42:28;;;;;;;;;;;4.30;91.10;;;;;;5031994;28;20136;-65
2022/05/03 01:45:03;;;;;;;9.50;5.13;;;4.20;91.70;;;;;;5043156;28;19986;-65
2022/05/03 01:47:48;;;;;;;9.65;5.22;;;4.30;89.10;;;;;;5031246;28;20038;-65
2022/05/03 01:50:35;;;;;;;10.00;5.55;;;4.30;89.00;;;;;;5032662;28;20133;-65
2022/05/03 01:53:19;;;;;;;9.55;5.95;;;4.20;89.90;;;;;;5036246;28;20087;-65
2022/05/03 01:55:57;;;;;;;11.07;6.18;;;4.30;88.50;;;;;;5042217;28;20065;-65
2022/05/03 01:58:36;;;;;;;10.82;6.30;;;4.30;88.60;;;;;;5049327;28;20071;-65
2022/05/03 02:01:30;;;;;;;8.85;5.93;;;4.30;91.40;;;;;;5047906;28;20064;-65
2022/05/03 02:04:14;;;;;;;10.55;6.00;;;4.30;90.80;;;;;;5031502;28;20379;-65
2022/05/03 02:07:08;;;;;;;9.88;6.03;;;4.30;90.30;;;;;;5042623;28;20132;-65
2022/05/03 02:10:17;;;;;;;12.35;6.53;;;4.30;90.10;;;;;;5030807;28;20045;-65
2022/05/03 02:12:52;;;;;;;10.55;5.50;;;4.40;90.00;;;;;;5044614;28;20037;-65
2022/05/03 02:15:31;;;;;;;12.18;5.80;;;4.40;88.70;;;;;;5041528;28;20037;-66
2022/05/03 02:18:23;;;;;;;9.18;5.63;;;4.30;88.30;;;;;;5045781;28;21104;-65
2022/05/03 02:21:10;;;;;;;10.52;6.25;;;4.20;88.50;;;;;;5034001;28;20029;-65
2022/05/03 02:23:48;;;;;;;10.25;5.63;;;4.10;88.20;;;;;;5034995;28;20037;-64
2022/05/03 02:26:30;;;;;;;9.85;5.82;;;4.10;88.20;;;;;;5045866;28;20037;-65
2022/05/03 02:29:21;;;;;;;10.10;6.20;;;4.10;89.70;;;;;;5029243;28;20080;-65
2022/05/03 02:31:54;;;;;;;10.20;5.93;;;4.10;89.00;;;;;;5029407;28;20077;-65
2022/05/03 02:34:46;;;;;;;11.63;6.00;;;4.00;89.00;;;;;;5043112;28;20029;-65
2022/05/03 02:37:38;;;;;;;10.60;6.57;;;4.10;91.40;;;;;;5037405;28;20041;-65
2022/05/03 02:40:08;;;;;;;13.30;6.80;;;4.10;91.20;;;;;;5029541;28;20049;-65
2022/05/03 02:42:35;;;;;;;;;;;4.10;90.20;;;;;;5042815;28;20037;-65
2022/05/03 02:45:02;;;;;;;12.48;7.50;;;4.20;92.20;;;;;;5044626;28;20353;-65
2022/05/03 02:47:48;;;;;;;15.23;8.35;;;4.10;90.60;;;;;;5039710;28;20366;-65
2022/05/03 02:50:28;;;;;;;12.38;7.60;;;4.20;90.10;;;;;;5047919;28;20049;-65
2022/05/03 02:52:54;;;;;;;12.35;7.18;;;4.20;90.20;;;;;;5039037;28;20033;-65
2022/05/03 02:55:33;;;;;;;10.48;5.80;;;4.30;89.40;;;;;;5042713;28;20049;-65
2022/05/03 02:58:20;;;;;;;12.35;6.80;;;4.30;89.20;;;;;;5038656;28;20041;-65
2022/05/03 03:04:02;;;;;;;14.18;7.50;;;4.30;89.30;;;;;;5030780;28;20049;-65
2022/05/03 03:06:37;;;;;;;10.93;6.38;;;4.20;90.50;;;;;;5029109;28;20114;-65
2022/05/03 03:09:03;;;;;;;10.73;6.47;;;4.20;89.60;;;;;;5036760;28;20045;-65
2022/05/03 03:11:33;;;;;;;12.52;7.00;;;4.20;89.00;;;;;;5038325;28;20033;-65
2022/05/03 03:14:09;;;;;;;10.85;6.57;;;4.20;89.00;;;;;;5028106;28;20065;-65
2022/05/03 03:16:43;;;;;;;11.35;6.85;;;4.10;89.10;;;;;;5055575;28;20037;-65
2022/05/03 03:19:34;;;;;;;12.18;6.97;;;4.10;89.40;;;;;;5035294;28;20044;-65
2022/05/03 03:22:02;;;;;;;10.93;6.03;;;4.10;90.30;;;;;;5045066;28;20041;-65
2022/05/03 03:24:29;;;;;;;12.13;6.95;;;4.10;89.40;;;;;;5037925;28;20431;-65
2022/05/03 03:26:57;;;;;;;11.75;6.40;;;4.10;89.40;;;;;;5037007;28;20038;-65
2022/05/03 03:29:25;;;;;;;13.52;6.57;;;4.10;89.50;;;;;;5042557;28;20043;-65
2022/05/03 03:31:52;;;;;;;10.88;7.45;;;4.10;89.50;;;;;;5038529;28;20055;-65
2022/05/03 03:34:20;;;;;;;12.15;6.95;;;4.10;89.30;;;;;;5041084;28;20078;-65
2022/05/03 03:36:49;;;;;;;11.27;6.82;;;4.10;89.40;;;;;;5041424;28;20036;-65
2022/05/03 03:39:14;;;;;;;10.82;6.40;;;4.10;89.80;;;;;;5033367;28;20033;-65
2022/05/03 03:41:41;;;;;;;11.57;6.82;;;4.10;89.50;;;;;;5045281;28;20095;-65
2022/05/03 03:44:06;;;;;;;13.02;6.80;;;4.10;89.60;;;;;;5040961;28;20041;-65
2022/05/03 03:46:33;;;;;;;11.32;6.28;;;4.10;89.30;;;;;;5040214;28;20044;-65
2022/05/03 03:48:59;;;;;;;14.30;7.32;;;4.00;89.40;;;;;;5052906;28;20496;-65
2022/05/03 03:51:25;;;;;;;12.75;7.28;;;4.00;89.40;;;;;;5044702;28;20049;-66
2022/05/03 03:53:52;;;;;;;13.90;7.90;;;4.10;89.60;;;;;;5036856;28;20046;-65
2022/05/03 03:56:18;;;;;;;12.98;7.20;;;4.10;89.80;;;;;;5036163;28;20034;-66
2022/05/03 03:58:44;;;;;;;13.25;7.32;;;4.20;89.70;;;;;;5047395;28;20042;-65
2022/05/03 04:01:09;;;;;;;15.18;7.60;;;4.20;89.60;;;;;;5047452;28;20457;-65
2022/05/03 04:03:37;;;;;;;10.60;6.38;;;4.30;89.50;;;;;;5052133;28;20123;-66
2022/05/03 04:06:04;;;;;;;11.48;7.03;;;4.30;89.40;;;;;;5047994;28;20415;-65
2022/05/03 04:08:30;;;;;;;12.57;7.22;;;4.40;89.30;;;;;;5043344;28;20040;-66
2022/05/03 04:10:55;;;;;;;13.35;7.18;;;4.50;90.00;;;;;;5033681;28;20044;-66
2022/05/03 04:13:21;;;;;;;13.27;7.80;;;4.50;89.60;;;;;;5038323;28;20032;-65
2022/05/03 04:15:50;;;;;;;12.57;7.85;;;4.60;89.80;;;;;;5050669;28;20037;-65
2022/05/03 04:18:16;;;;;;;12.98;8.05;;;4.60;89.70;;;;;;5049699;28;20041;-65
2022/05/03 04:20:41;;;;;;;11.05;7.07;;;4.60;90.10;;;;;;5049109;28;20614;-65
2022/05/03 04:23:09;;;;;;;15.30;8.35;;;4.60;89.90;;;;;;5043606;28;20052;-66
2022/05/03 04:25:35;;;;;;;14.88;9.07;;;4.60;90.50;;;;;;5052019;28;20041;-65
2022/05/03 04:28:00;;;;;;;15.05;9.27;;;4.70;90.70;;;;;;5040877;28;20041;-66
2022/05/03 04:30:26;;;;;;;14.90;9.85;;;4.80;90.90;;;;;;5032828;28;20048;-65
2022/05/03 04:32:51;;;;;;;15.50;9.82;;;4.80;90.90;;;;;;5034150;28;20033;-65
2022/05/03 04:35:17;;;;;;;17.10;10.65;;;4.90;91.00;;;;;;5042584;28;20099;-66
2022/05/03 04:37:43;;;;;;;16.00;10.10;;;5.00;91.00;;;;;;5047284;28;20087;-66
2022/05/03 04:40:08;;;;;;;18.13;11.27;;;5.00;91.20;;;;;;5034001;28;20091;-66
2022/05/03 04:42:34;;;;;;;17.75;10.93;;;5.10;91.90;;;;;;5040600;28;20045;-66
2022/05/03 04:44:59;;;;;;;17.80;10.82;;;5.20;91.80;;;;;;5045514;28;20044;-66
2022/05/03 04:47:25;;;;;;;19.77;11.60;;;5.20;91.70;;;;;;5040324;28;20045;-66
2022/05/03 04:49:50;;;;;;;21.33;12.10;;;5.30;91.60;;;;;;5046911;28;20044;-65
2022/05/03 04:52:16;;;;;;;21.38;12.15;;;5.30;91.90;;;;;;5050483;28;20063;-66
2022/05/03 04:54:41;;;;;;;21.38;12.65;;;5.40;91.70;;;;;;5036569;28;20556;-65
2022/05/03 04:57:09;;;;;;;20.58;12.50;;;5.40;91.50;;;;;;5034716;28;20050;-65
2022/05/03 04:59:36;;;;;;;20.42;12.63;;;5.50;92.00;;;;;;5035063;28;20596;-65
2022/05/03 05:02:01;;;;;;;21.83;12.80;;;5.70;91.50;;;;;;5038941;28;20477;-65
2022/05/03 05:04:27;;;;;;;22.70;12.85;;;5.70;91.80;;;;;;5040605;28;20049;-66
2022/05/03 05:06:53;;;;;;;25.25;13.88;;;5.70;91.60;;;;;;5050723;28;20045;-66
2022/05/03 05:09:18;;;;;;;26.92;14.85;;;5.80;92.00;;;;;;5049270;28;20041;-66
2022/05/03 05:11:43;;;;;;;24.17;14.25;;;6.00;91.90;;;;;;5047222;28;20106;-66
2022/05/03 05:14:09;;;;;;;28.25;14.88;;;6.10;92.10;;;;;;5041522;28;20617;-66
2022/05/03 05:16:35;;;;;;;27.23;15.38;;;6.20;91.80;;;;;;5041416;28;20033;-65
2022/05/03 05:19:00;;;;;;;27.25;15.55;;;6.40;91.80;;;;;;5039696;28;20036;-65
2022/05/03 05:21:26;;;;;;;26.45;16.27;;;6.50;91.70;;;;;;5041575;28;20047;-66
2022/05/03 05:23:52;;;;;;;26.30;16.48;;;6.60;91.80;;;;;;5050921;28;20033;-66
2022/05/03 05:26:18;;;;;;;26.85;15.85;;;6.70;91.90;;;;;;5049009;28;20772;-66
2022/05/03 05:28:43;;;;;;;26.60;15.98;;;6.90;91.80;;;;;;5038020;28;20045;-66
2022/05/03 05:31:09;;;;;;;32.13;17.50;;;7.00;91.70;;;;;;5038404;28;20059;-66
2022/05/03 05:33:34;;;;;;;30.17;16.73;;;7.10;91.70;;;;;;5043936;28;20451;-65
2022/05/03 05:36:00;;;;;;;31.30;18.42;;;7.30;91.60;;;;;;5045213;28;20533;-66
2022/05/03 05:38:25;;;;;;;30.58;17.27;;;7.40;91.50;;;;;;5038810;28;20369;-66
2022/05/03 05:40:52;;;;;;;34.13;18.55;;;7.40;91.40;;;;;;5048020;28;20421;-66
2022/05/03 05:43:17;;;;;;;31.15;18.70;;;7.60;91.30;;;;;;5046258;28;20032;-66
2022/05/03 05:45:44;;;;;;;30.65;18.92;;;7.70;91.20;;;;;;5038400;28;20083;-66
2022/05/03 05:48:10;;;;;;;32.72;18.83;;;7.80;91.20;;;;;;5046240;28;20040;-66
2022/05/03 05:50:37;;;;;;;31.85;18.83;;;7.90;91.10;;;;;;5043115;28;20088;-66
2022/05/03 05:55:47;;;;;;;36.53;19.05;;;8.10;90.90;;;;;;5048772;28;20401;-66
2022/05/03 05:58:13;;;;;;;32.20;18.48;;;8.20;90.80;;;;;;5046180;28;20044;-66
2022/05/03 06:00:38;;;;;;;36.08;18.23;;;8.40;90.70;;;;;;5051635;28;20044;-66
2022/05/03 06:03:05;;;;;;;32.85;18.70;;;8.50;90.50;;;;;;5051067;28;20029;-65
2022/05/03 06:05:31;;;;;;;33.00;19.38;;;8.60;90.40;;;;;;5046924;28;20099;-66
2022/05/03 06:07:57;;;;;;;31.13;17.88;;;8.70;90.30;;;;;;5039397;28;20405;-66
2022/05/03 06:10:23;;;;;;;37.15;19.73;;;8.70;90.30;;;;;;5045939;28;20036;-65
2022/05/03 06:12:49;;;;;;;32.80;18.02;;;8.80;90.30;;;;;;5042551;28;20036;-66
2022/05/03 06:15:15;;;;;;;31.67;18.05;;;8.90;90.30;;;;;;5045305;28;20086;-66
2022/05/03 06:17:41;;;;;;;36.45;18.90;;;8.90;90.40;;;;;;5043512;28;20188;-66
2022/05/03 06:20:08;;;;;;;33.47;19.45;;;9.00;90.20;;;;;;5046897;28;20115;-66
2022/05/03 06:22:33;;;;;;;36.38;20.13;;;9.00;90.10;;;;;;5040815;28;20045;-66
2022/05/03 06:24:59;;;;;;;36.28;19.80;;;9.10;90.20;;;;;;5040180;28;20036;-66
2022/05/03 06:27:24;;;;;;;34.58;18.48;;;9.10;90.10;;;;;;5047939;28;20135;-67
2022/05/03 06:29:50;;;;;;;38.20;20.08;;;9.20;90.00;;;;;;5045976;28;20324;-66
2022/05/03 06:32:15;;;;;;;36.85;21.48;;;9.30;89.90;;;;;;5042248;28;20037;-66
2022/05/03 06:34:41;;;;;;;39.90;21.55;;;9.30;89.80;;;;;;5038978;28;20044;-66
2022/05/03 06:37:06;;;;;;;37.58;20.80;;;9.40;90.00;;;;;;5044179;28;20041;-66
2022/05/03 06:39:35;;;;;;;34.95;21.00;;;9.50;89.80;;;;;;5032358;28;20078;-66
2022/05/03 06:42:03;;;;;;;35.50;20.23;;;9.50;89.50;;;;;;5042852;28;20048;-66
2022/05/03 06:44:29;;;;;;;35.30;20.33;;;9.60;89.30;;;;;;5033309;28;20056;-66
2022/05/03 06:46:55;;;;;;;42.53;21.63;;;9.70;89.10;;;;;;5037363;28;20048;-66
2022/05/03 06:49:20;;;;;;;37.88;20.67;;;9.70;89.10;;;;;;5038850;28;20049;-66
2022/05/03 06:51:46;;;;;;;40.85;22.08;;;9.80;88.80;;;;;;5048840;28;20400;-66
2022/05/03 06:54:11;;;;;;;42.28;22.45;;;9.90;88.90;;;;;;5052396;28;20390;-66
2022/05/03 06:56:37;;;;;;;50.50;24.63;;;10.00;88.80;;;;;;5051679;28;20098;-66
2022/05/03 06:59:08;;;;;;;43.78;23.60;;;10.00;88.60;;;;;;5053647;28;20489;-66
2022/05/03 07:01:35;;;;;;;43.30;23.80;;;10.10;88.50;;;;;;5053687;28;20127;-66
2022/05/03 07:04:01;;;;;;;42.85;23.50;;;10.10;88.50;;;;;;5052646;28;20056;-66
2022/05/03 07:06:26;;;;;;;47.00;22.83;;;10.20;88.30;;;;;;5051701;28;20356;-66
2022/05/03 07:08:52;;;;;;;44.97;23.48;;;10.30;88.20;;;;;;5045917;28;20091;-66
2022/05/03 07:11:18;;;;;;;46.90;24.02;;;10.30;88.10;;;;;;5053184;28;20037;-66
2022/05/03 07:13:43;;;;;;;48.22;24.45;;;10.30;88.20;;;;;;5043122;28;20509;-66
2022/05/03 07:16:09;;;;;;;47.28;24.73;;;10.40;88.20;;;;;;5048974;28;20043;-66
2022/05/03 07:24:05;;;;;;;47.05;24.58;;;10.40;88.30;;;;;;5048189;28;20076;-66
2022/05/03 07:26:30;;;;;;;45.42;23.50;;;10.40;88.50;;;;;;5050818;28;20041;-66
2022/05/03 07:28:56;;;;;;;40.95;23.23;;;10.40;88.90;;;;;;5055183;28;20540;-65
2022/05/03 07:31:22;;;;;;;44.92;22.02;;;10.30;89.60;;;;;;5047341;28;20037;-66
2022/05/03 07:33:50;;;;;;;34.83;20.33;;;10.30;89.10;;;;;;5045178;28;20029;-66
2022/05/03 07:36:19;;;;;;;34.67;20.42;;;10.30;89.40;;;;;;5052014;28;20049;-65
2022/05/03 07:38:46;;;;;;;32.28;18.35;;;10.30;89.70;;;;;;5045404;28;20068;-66
2022/05/03 07:41:12;;;;;;;27.30;16.25;;;10.30;89.70;;;;;;5034377;28;20500;-67
2022/05/03 07:43:38;;;;;;;25.40;13.77;;;10.30;89.90;;;;;;5046214;28;20055;-65
2022/05/03 07:46:04;;;;;;;22.30;11.95;;;10.30;90.00;;;;;;5047425;28;20508;-65
2022/05/03 07:48:30;;;;;;;21.05;12.55;;;10.30;90.00;;;;;;5053769;28;20139;-66
2022/05/03 07:50:56;;;;;;;18.42;10.18;;;10.30;90.00;;;;;;5052508;28;20108;-66
2022/05/03 07:53:22;;;;;;;13.13;7.50;;;10.20;90.10;;;;;;5042643;28;20508;-66
2022/05/03 07:55:48;;;;;;;14.48;8.07;;;10.20;89.90;;;;;;5044551;28;20045;-66
2022/05/03 07:58:15;;;;;;;13.85;6.63;;;10.20;89.90;;;;;;5037752;28;20049;-67
2022/05/03 08:00:41;;;;;;;10.10;6.60;;;10.30;89.90;;;;;;5047846;28;20052;-67
2022/05/03 08:03:07;;;;;;;14.57;7.65;;;10.30;89.80;;;;;;5042563;28;20087;-66
2022/05/03 08:05:33;;;;;;;14.55;7.03;;;10.30;89.70;;;;;;5035489;28;20029;-66
2022/05/03 08:07:58;;;;;;;16.73;7.10;;;10.40;89.60;;;;;;5064026;28;20075;-66
2022/05/03 08:10:24;;;;;;;14.80;7.18;;;10.40;89.60;;;;;;5041697;28;20056;-67
2022/05/03 08:12:52;;;;;;;12.55;6.18;;;10.60;89.10;;;;;;5038089;28;20986;-66
2022/05/03 08:15:19;;;;;;;9.95;6.63;;;10.70;88.90;;;;;;5052411;28;20374;-66
2022/05/03 08:17:45;;;;;;;13.68;7.72;;;10.70;88.70;;;;;;5053421;28;20095;-66
2022/05/03 08:20:13;;;;;;;16.08;7.18;;;10.80;88.30;;;;;;5050617;28;20408;-66
2022/05/03 08:22:39;;;;;;;12.20;7.15;;;10.80;88.00;;;;;;5046325;28;20037;-66
2022/05/03 08:25:05;;;;;;;14.70;8.13;;;10.80;87.90;;;;;;5045599;28;20408;-66
2022/05/03 08:27:31;;;;;;;13.60;7.75;;;10.90;87.60;;;;;;5050105;28;20583;-67
2022/05/03 08:29:57;;;;;;;15.40;7.90;;;11.00;87.60;;;;;;5040166;28;20128;-66
2022/05/03 08:32:22;;;;;;;16.10;7.43;;;11.00;87.10;;;;;;5043990;28;20351;-67
2022/05/03 08:34:48;;;;;;;14.45;7.18;;;11.10;87.00;;;;;;5040261;28;20033;-67
2022/05/03 08:42:42;;;;;;;12.02;6.13;;;11.10;86.50;;;;;;5044064;28;20037;-66
2022/05/03 08:45:09;;;;;;;11.60;5.80;;;11.20;86.30;;;;;;5051284;28;20393;-66
2022/05/03 08:47:36;;;;;;;16.17;6.22;;;11.20;85.90;;;;;;5049853;28;20747;-67
2022/05/03 08:50:12;;;;;;;15.02;6.80;;;11.30;85.50;;;;;;5049742;28;20580;-66
2022/05/03 08:52:43;;;;;;;16.63;5.95;;;11.30;84.90;;;;;;5037339;28;20037;-66
2022/05/03 08:55:11;;;;;;;13.48;6.18;;;11.30;84.80;;;;;;5037962;28;20056;-66
2022/05/03 08:57:37;;;;;;;14.75;6.68;;;11.30;84.60;;;;;;5047563;28;20044;-67
2022/05/03 09:00:05;;;;;;;15.85;6.30;;;11.30;84.40;;;;;;5052511;28;20059;-66
2022/05/03 09:02:33;;;;;;;17.15;6.63;;;11.40;84.20;;;;;;5038923;28;20049;-66
2022/05/03 09:04:59;;;;;;;15.27;5.72;;;11.40;84.60;;;;;;5038325;28;20082;-66
2022/05/03 09:07:25;;;;;;;18.05;7.13;;;11.40;83.90;;;;;;5042971;28;20655;-66
2022/05/03 09:09:52;;;;;;;22.95;7.15;;;11.40;83.60;;;;;;5040941;28;20736;-66
2022/05/03 09:12:27;;;;;;;22.02;6.95;;;11.30;83.80;;;;;;5036751;28;20044;-67
2022/05/03 09:14:55;;;;;;;19.38;7.72;;;11.30;83.70;;;;;;5034968;28;20374;-67
2022/05/03 09:17:41;;;;;;;17.63;7.00;;;11.30;83.80;;;;;;5048904;28;20435;-66
2022/05/03 09:25:51;;;;;;;21.40;7.60;;;11.30;83.10;;;;;;5036095;28;20052;-66
2022/05/03 09:28:20;;;;;;;22.75;7.78;;;11.30;82.80;;;;;;5042694;28;20037;-67
2022/05/03 09:30:51;;;;;;;16.73;8.10;;;11.40;82.70;;;;;;5046997;28;20041;-66
2022/05/03 09:33:19;;;;;;;20.80;7.43;;;11.40;82.30;;;;;;5038939;28;20041;-66
2022/05/03 09:35:46;;;;;;;21.15;7.47;;;11.40;82.20;;;;;;5031204;28;20076;-66
2022/05/03 09:38:12;;;;;;;19.70;6.95;;;11.40;82.00;;;;;;5047911;28;20044;-66
2022/05/03 09:40:45;;;;;;;23.02;7.07;;;11.50;81.60;;;;;;5052690;28;20457;-66
2022/05/03 09:43:12;;;;;;;16.45;5.75;;;11.50;80.40;;;;;;5038917;28;20041;-67
2022/05/03 09:45:38;;;;;;;19.48;5.95;;;11.60;80.30;;;;;;5032908;28;20052;-66
2022/05/03 09:48:05;;;;;;;18.73;4.90;;;11.70;79.80;;;;;;5034937;28;20033;-66
2022/05/03 09:50:30;;;;;;;12.98;5.38;;;11.70;79.30;;;;;;5040485;28;20082;-66
2022/05/03 09:52:57;;;;;;;15.23;5.00;;;11.80;78.90;;;;;;5050463;28;20481;-66
2022/05/03 09:55:32;;;;;;;11.90;4.53;;;11.90;78.20;;;;;;5050386;28;20620;-66
2022/05/03 09:58:03;;;;;;;14.60;4.38;;;12.00;77.50;;;;;;5046682;28;20052;-66
2022/05/03 10:00:33;;;;;;;15.27;3.83;;;12.10;77.00;;;;;;5051603;28;20041;-67
2022/05/03 10:03:01;;;;;;;16.75;3.63;;;12.20;76.50;;;;;;5043296;28;20116;-66
2022/05/03 10:05:28;;;;;;;13.07;3.72;;;12.30;75.60;;;;;;5040056;28;20037;-67
2022/05/03 10:07:54;;;;;;;9.45;3.72;;;12.40;75.00;;;;;;5046347;28;20033;-66
2022/05/03 10:10:20;;;;;;;12.60;4.25;;;12.40;74.40;;;;;;5044726;28;20416;-66
2022/05/03 10:12:49;;;;;;;16.83;3.80;;;12.40;73.80;;;;;;5043106;28;20033;-66
2022/05/03 10:21:00;;;;;;;10.30;3.80;;;12.70;72.50;;;;;;5036269;28;20135;-67
2022/05/03 10:23:28;;;;;;;11.55;3.17;;;12.80;71.90;;;;;;5035343;28;20030;-66
2022/05/03 10:25:59;;;;;;;12.60;3.50;;;12.90;71.50;;;;;;5044227;28;20049;-67
2022/05/03 10:28:25;;;;;;;16.15;3.90;;;13.10;71.00;;;;;;5042947;28;20049;-67
2022/05/03 10:31:07;;;;;;;9.68;3.40;;;13.30;70.40;;;;;;5038669;28;20579;-66
2022/05/03 10:33:32;;;;;;;8.93;3.40;;;13.40;68.90;;;;;;5037843;28;20037;-67
2022/05/03 10:36:00;;;;;;;8.40;3.55;;;13.40;69.50;;;;;;5034799;28;20512;-65
2022/05/03 10:38:46;;;;;;;8.52;3.10;;;13.60;68.80;;;;;;5038405;28;20033;-66
2022/05/03 10:41:22;;;;;;;14.23;3.50;;;13.60;67.30;;;;;;5043930;28;20046;-67
2022/05/03 10:43:47;;;;;;;11.32;3.63;;;13.80;68.20;;;;;;5047555;28;20041;-67
2022/05/03 10:46:19;;;;;;;9.32;3.92;;;13.90;67.70;;;;;;5050340;28;20041;-66
2022/05/03 10:49:10;;;;;;;10.45;3.78;;;14.00;67.20;;;;;;5044235;28;20410;-65
2022/05/03 10:51:37;;;;;;;7.18;3.33;;;14.20;65.30;;;;;;5034869;28;20057;-66
2022/05/03 10:54:04;;;;;;;11.82;3.75;;;14.40;66.30;;;;;;5045266;28;20077;-66
2022/05/03 10:56:30;;;;;;;10.65;3.13;;;14.50;65.50;;;;;;5039242;28;20064;-66
2022/05/03 10:59:14;;;;;;;13.75;3.65;;;14.70;64.40;;;;;;5047575;28;20044;-67
2022/05/03 11:01:57;;;;;;;10.60;3.83;;;14.70;62.60;;;;;;5035955;28;20484;-67
2022/05/03 11:04:25;;;;;;;10.48;3.88;;;14.70;61.50;;;;;;5038624;28;20048;-66
2022/05/03 11:06:51;;;;;;;8.65;3.55;;;14.80;63.40;;;;;;5038801;28;20052;-66
2022/05/03 11:09:29;;;;;;;11.63;4.03;;;15.00;63.00;;;;;;5040716;28;20095;-67
2022/05/03 11:12:00;;;;;;;8.95;3.30;;;15.10;60.40;;;;;;5040358;28;20358;-67
2022/05/03 11:14:28;;;;;;;11.90;3.53;;;15.10;62.10;;;;;;5047733;28;20045;-67
2022/05/03 11:17:05;;;;;;;9.60;2.97;;;15.30;61.70;;;;;;5048298;28;20452;-66
2022/05/03 11:19:31;;;;;;;9.75;3.45;;;15.50;59.60;;;;;;5035675;28;20477;-66
2022/05/03 11:21:58;;;;;;;10.75;3.53;;;15.50;60.70;;;;;;5041032;28;20051;-66
2022/05/03 11:24:29;;;;;;;14.35;3.45;;;15.30;60.50;;;;;;5050587;28;20040;-66
2022/05/03 11:27:01;;;;;;;13.65;3.42;;;15.20;59.40;;;;;;5035360;28;20108;-67
2022/05/03 11:29:28;;;;;;;13.38;3.40;;;15.10;59.80;;;;;;5044482;28;20044;-66
2022/05/03 11:31:54;;;;;;;11.07;3.08;;;15.10;60.20;;;;;;5037154;28;20083;-66
2022/05/03 11:34:20;;;;;;;7.80;3.00;;;15.30;60.10;;;;;;5032117;28;20478;-66
2022/05/03 11:36:48;;;;;;;7.20;2.70;;;15.20;59.80;;;;;;5039615;28;20440;-66
2022/05/03 11:39:14;;;;;;;11.05;3.30;;;15.50;59.50;;;;;;5051390;28;20072;-66
2022/05/03 11:41:42;;;;;;;8.48;2.92;;;15.70;58.90;;;;;;5052404;28;20433;-66
2022/05/03 11:44:07;;;;;;;8.52;3.53;;;16.00;58.30;;;;;;5049217;28;20070;-66
2022/05/03 11:46:33;;;;;;;8.90;3.20;;;16.20;57.70;;;;;;5043041;28;20044;-66
2022/05/03 11:49:02;;;;;;;5.80;2.45;;;16.30;57.30;;;;;;5065672;28;20045;-66
2022/05/03 11:57:19;;;;;;;6.43;2.88;;;16.60;54.90;;;;;;5048876;28;20504;-67
2022/05/03 11:59:45;;;;;;;5.22;2.75;;;17.10;54.90;;;;;;5053842;28;20047;-67
2022/05/03 12:02:20;;;;;;;5.28;2.88;;;17.40;54.10;;;;;;5053087;28;20094;-67
2022/05/03 12:05:04;;;;;;;6.07;2.80;;;17.60;53.00;;;;;;5055262;28;20358;-66
2022/05/03 12:07:41;;;;;;;6.43;2.65;;;17.60;50.30;;;;;;5049003;28;20426;-67
2022/05/03 12:10:27;;;;;;;11.32;2.90;;;17.50;51.40;;;;;;5051172;28;20083;-67
2022/05/03 12:13:12;;;;;;;9.82;2.88;;;17.40;50.50;;;;;;5048012;28;20389;-65
2022/05/03 12:16:02;;;;;;;5.78;2.65;;;17.20;50.60;;;;;;5050664;28;20067;-67
2022/05/03 12:18:30;;;;;;;6.95;2.30;;;17.10;51.70;;;;;;5035935;28;20057;-67
2022/05/03 12:20:58;;;;;;;7.82;2.28;;;17.00;52.70;;;;;;5054385;28;20369;-67
2022/05/03 12:23:33;;;;;;;5.80;2.35;;;17.00;52.30;;;;;;5044508;28;20455;-67
2022/05/03 12:26:20;;;;;;;9.90;2.60;;;17.00;51.40;;;;;;5049202;28;20079;-67
2022/05/03 12:28:55;;;;;;;8.50;2.70;;;17.00;52.30;;;;;;5032442;28;20053;-68
2022/05/03 12:31:23;;;;;;;5.43;2.20;;;17.40;51.70;;;;;;5051225;28;20433;-67
2022/05/03 12:33:50;;;;;;;9.80;2.38;;;17.40;51.40;;;;;;5053073;28;20047;-67
2022/05/03 12:36:34;;;;;;;7.13;2.28;;;17.60;51.10;;;;;;5041185;28;20040;-64
2022/05/03 12:39:19;;;;;;;9.35;2.10;;;17.80;48.60;;;;;;5039234;28;20040;-67
2022/05/03 12:41:52;;;;;;;8.35;2.40;;;17.70;48.90;;;;;;5045735;28;20124;-67
2022/05/03 12:44:19;;;;;;;7.18;1.92;;;17.50;50.10;;;;;;5031612;28;20041;-66
2022/05/03 12:46:44;;;;;;;7.35;2.30;;;17.30;50.40;;;;;;5038460;28;20048;-67
2022/05/03 12:49:12;;;;;;;6.80;2.10;;;17.10;50.40;;;;;;5048257;28;20140;-67
2022/05/03 12:51:42;;;;;;;5.22;1.95;;;16.80;50.40;;;;;;5042695;28;20060;-67
2022/05/03 12:54:08;;;;;;;6.72;2.92;;;16.60;50.70;;;;;;5037270;28;20051;-66
2022/05/03 12:59:21;;;;;;;4.22;1.73;;;17.50;50.20;;;;;;5034383;28;20149;-66
2022/05/03 13:01:50;;;;;;;6.25;2.00;;;20.10;47.10;;;;;;5032513;28;20192;-68
2022/05/03 13:04:17;;;;;;;4.80;2.10;;;21.90;43.40;;;;;;5032954;28;20032;-67
2022/05/03 13:06:44;;;;;;;5.07;1.90;;;21.60;42.20;;;;;;5035960;28;20037;-67
2022/05/03 13:09:10;;;;;;;5.40;2.17;;;21.00;42.30;;;;;;5046910;28;20045;-67
2022/05/03 13:11:38;;;;;;;6.55;2.20;;;21.40;42.10;;;;;;5040086;28;20048;-68
2022/05/03 13:14:05;;;;;;;4.90;1.75;;;22.30;40.40;;;;;;5047712;28;20067;-67
2022/05/03 13:16:30;;;;;;;3.10;1.77;;;21.80;40.30;;;;;;5043801;28;20037;-67
2022/05/03 13:18:56;;;;;;;6.63;2.50;;;20.90;40.90;;;;;;5030502;28;20037;-67
2022/05/03 13:21:22;;;;;;;7.45;1.83;;;20.50;41.70;;;;;;5035064;28;20186;-67
2022/05/03 13:23:48;;;;;;;5.78;2.10;;;21.60;41.10;;;;;;5047853;28;20045;-68
2022/05/03 13:26:14;;;;;;;7.45;1.95;;;23.80;38.40;;;;;;5049276;28;20778;-68
2022/05/03 13:28:40;;;;;;;3.92;1.60;;;25.40;36.00;;;;;;5031374;28;20049;-68
2022/05/03 13:31:06;;;;;;;3.60;1.73;;;25.10;34.80;;;;;;5041906;28;20120;-68
2022/05/03 13:33:32;;;;;;;7.15;2.33;;;24.10;35.10;;;;;;5031120;28;20049;-66
2022/05/03 13:41:27;;;;;;;6.80;2.40;;;20.80;39.30;;;;;;5048104;28;20049;-66
2022/05/03 13:43:52;;;;;;;7.50;2.63;;;19.70;40.50;;;;;;5043783;28;20041;-67